Grand Princess — ZCBU5 — position and weather

sailwx.info

Track history (hours):
 
Tides and Currents Weather Stations Pressure Air Temp Water Temp Dewpoint Dewpoint Depression Visibility Wind Speed Wind Dir Waves Ship Positions

Grand Princess

Operator: Princess Cruises

Last reported at 2015-May-26 01:00 UTC. Time now 2015-May-27 05:27 UTC.
Position N 56°06' W 132°42'.

Length 289.5 m; beam 36 m; draft 8.5 m.

Type: Ship. MMSI: 310327000.

Wind from 310 at 12 knots

Barometer 1017.2 mb
Air temperature 19.0 ° C
Visibility: greater than 10.8 NM
Dewpoint 9.6 ° C
Water temperature 12.0 ° C

Date/timePositionNaut miles runAvg speedWind from/ knotsBaromVisibWave heightAir tempDewpointWater temp
2015-May-26 01:00N 56°06' W 132°42'276 9.5 310 / 121017.210.8 19.0 9.612.0
2015-May-24 20:04N 52°02' W 129°04'711.7
2015-May-24 19:27N 51°58' W 128°54'1111.5
2015-May-24 18:31N 51°50' W 128°42'1010.7
2015-May-24 17:33N 51°41' W 128°34'1010.0
2015-May-24 16:33N 51°31' W 128°30'1413.2
2015-May-24 15:30N 51°18' W 128°24'1313.1
2015-May-24 14:29N 51°09' W 128°09'1414.0
2015-May-24 13:29N 51°01' W 127°51'1213.3
2015-May-24 12:33N 50°53' W 127°36'1616.0
2015-May-24 11:33N 50°46' W 127°13'1615.7
2015-May-24 10:33N 50°40' W 126°50'1515.0
2015-May-24 09:33N 50°30' W 126°32'7413.9
2015-May-24 04:13N 49°50' W 124°55'1319.2
2015-May-24 03:32N 49°40' W 124°42'1818.9
2015-May-24 02:33N 49°27' W 124°21'1919.3
2015-May-24 01:33N 49°23' W 123°53'2221.3
2015-May-24 00:32N 49°19' W 123°20'9 8.9
2015-May-23 23:33N 49°17' W 123°06'0 0.0
2015-May-23 22:32N 49°17' W 123°06'0 0.0
2015-May-23 21:32N 49°17' W 123°06'0 0.0
2015-May-23 20:31N 49°17' W 123°06'0 0.0
2015-May-23 19:31N 49°17' W 123°06'0 0.0
2015-May-23 18:31N 49°17' W 123°06'0 0.0
2015-May-23 17:33N 49°17' W 123°06'0 0.0
2015-May-23 16:33N 49°17' W 123°06'0 0.0
2015-May-23 15:32N 49°17' W 123°06'0 0.0
2015-May-23 14:32N 49°17' W 123°06'0 0.2
2015-May-23 13:33N 49°18' W 123°06'9 9.2
2015-May-23 12:34N 49°18' W 123°20'1111.1
2015-May-23 11:33N 49°18' W 123°37'1111.0
2015-May-23 10:33N 49°21' W 123°54'1111.0
2015-May-23 09:33N 49°23' W 124°10'1111.4
2015-May-23 08:33N 49°28' W 124°26'1111.2
2015-May-23 07:33N 49°36' W 124°38'1712.1
2015-May-23 06:08N 49°49' W 124°56'6614.0
2015-May-23 01:24N 50°29' W 126°17'1214.5
2015-May-23 00:33N 50°31' W 126°37'1514.4
2015-May-22 23:32N 50°41' W 126°53'1515.0
2015-May-22 22:33N 50°46' W 127°15'2015.2
2015-May-22 21:14N 50°56' W 127°42'913.3
2015-May-22 20:32N 51°02' W 127°54'1615.9
2015-May-22 19:32N 51°11' W 128°15'1414.6
2015-May-22 18:33N 51°23' W 128°26'36310.2
2015-May-21 07:00N 56°18' W 134°24'118 2.4 180 / 91020.7 5.4 10.5 8.510.0
2015-May-19 05:14N 58°11' W 135°24'810.5
2015-May-19 04:31N 58°15' W 135°37'1010.7
2015-May-19 03:33N 58°19' W 135°54'1110.7
2015-May-19 02:33N 58°29' W 136°03'1212.0
2015-May-19 01:33N 58°41' W 136°10'1411.8
2015-May-19 00:22N 58°50' W 136°30'3 0.6
2015-May-18 19:17N 58°52' W 136°35'1217.0
2015-May-18 18:33N 58°44' W 136°16'1616.5
2015-May-18 17:33N 58°29' W 136°03'10 9.7
2015-May-18 16:33N 58°20' W 136°06'10310.8
2015-May-18 07:00N 58°54' W 139°12'306 6.7 320 / 151026.4 9.0 6.910.0
2015-May-16 09:00N 60°42' W 148°42'   060 / 81021.910.8 8.5 4.7 9.0
Track history (hours):
 
Tides and Currents Weather Stations Pressure Air Temp Water Temp Dewpoint Dewpoint Depression Visibility Wind Speed Wind Dir Waves Ship Positions

Grand Princess

Operator: Princess Cruises

Last reported at 2015-May-26 01:00 UTC. Time now 2015-May-27 05:27 UTC.
Position N 56°06' W 132°42'.

Length 289.5 m; beam 36 m; draft 8.5 m.

Type: Ship. MMSI: 310327000.

Wind from 310 at 12 knots

Barometer 1017.2 mb
Air temperature 19.0 ° C
Visibility: greater than 10.8 NM
Dewpoint 9.6 ° C
Water temperature 12.0 ° C

Date/timePositionNaut miles runAvg speedWind from/ knotsBaromVisibWave heightAir tempDewpointWater temp
2015-May-26 01:00N 56°06' W 132°42'276 9.5 310 / 121017.210.8 19.0 9.612.0
2015-May-24 20:04N 52°02' W 129°04'711.7
2015-May-24 19:27N 51°58' W 128°54'1111.5
2015-May-24 18:31N 51°50' W 128°42'1010.7
2015-May-24 17:33N 51°41' W 128°34'1010.0
2015-May-24 16:33N 51°31' W 128°30'1413.2
2015-May-24 15:30N 51°18' W 128°24'1313.1
2015-May-24 14:29N 51°09' W 128°09'1414.0
2015-May-24 13:29N 51°01' W 127°51'1213.3
2015-May-24 12:33N 50°53' W 127°36'1616.0
2015-May-24 11:33N 50°46' W 127°13'1615.7
2015-May-24 10:33N 50°40' W 126°50'1515.0
2015-May-24 09:33N 50°30' W 126°32'7413.9
2015-May-24 04:13N 49°50' W 124°55'1319.2
2015-May-24 03:32N 49°40' W 124°42'1818.9
2015-May-24 02:33N 49°27' W 124°21'1919.3
2015-May-24 01:33N 49°23' W 123°53'2221.3
2015-May-24 00:32N 49°19' W 123°20'9 8.9
2015-May-23 23:33N 49°17' W 123°06'0 0.0
2015-May-23 22:32N 49°17' W 123°06'0 0.0
2015-May-23 21:32N 49°17' W 123°06'0 0.0
2015-May-23 20:31N 49°17' W 123°06'0 0.0
2015-May-23 19:31N 49°17' W 123°06'0 0.0
2015-May-23 18:31N 49°17' W 123°06'0 0.0
2015-May-23 17:33N 49°17' W 123°06'0 0.0
2015-May-23 16:33N 49°17' W 123°06'0 0.0
2015-May-23 15:32N 49°17' W 123°06'0 0.0
2015-May-23 14:32N 49°17' W 123°06'0 0.2
2015-May-23 13:33N 49°18' W 123°06'9 9.2
2015-May-23 12:34N 49°18' W 123°20'1111.1
2015-May-23 11:33N 49°18' W 123°37'1111.0
2015-May-23 10:33N 49°21' W 123°54'1111.0
2015-May-23 09:33N 49°23' W 124°10'1111.4
2015-May-23 08:33N 49°28' W 124°26'1111.2
2015-May-23 07:33N 49°36' W 124°38'1712.1
2015-May-23 06:08N 49°49' W 124°56'6614.0
2015-May-23 01:24N 50°29' W 126°17'1214.5
2015-May-23 00:33N 50°31' W 126°37'1514.4
2015-May-22 23:32N 50°41' W 126°53'1515.0
2015-May-22 22:33N 50°46' W 127°15'2015.2
2015-May-22 21:14N 50°56' W 127°42'913.3
2015-May-22 20:32N 51°02' W 127°54'1615.9
2015-May-22 19:32N 51°11' W 128°15'1414.6
2015-May-22 18:33N 51°23' W 128°26'36310.2
2015-May-21 07:00N 56°18' W 134°24'118 2.4 180 / 91020.7 5.4 10.5 8.510.0
2015-May-19 05:14N 58°11' W 135°24'810.5
2015-May-19 04:31N 58°15' W 135°37'1010.7
2015-May-19 03:33N 58°19' W 135°54'1110.7
2015-May-19 02:33N 58°29' W 136°03'1212.0
2015-May-19 01:33N 58°41' W 136°10'1411.8
2015-May-19 00:22N 58°50' W 136°30'3 0.6
2015-May-18 19:17N 58°52' W 136°35'1217.0
2015-May-18 18:33N 58°44' W 136°16'1616.5
2015-May-18 17:33N 58°29' W 136°03'10 9.7
2015-May-18 16:33N 58°20' W 136°06'10310.8
2015-May-18 07:00N 58°54' W 139°12'306 6.7 320 / 151026.4 9.0 6.910.0
2015-May-16 09:00N 60°42' W 148°42'   060 / 81021.910.8 8.5 4.7 9.0

Dump ship's entire track history